createdAt,value
2022-11-07T00:02:00.194Z,2.20
2022-11-07T00:07:03.234Z,2.20
2022-11-07T00:12:06.218Z,2.20
2022-11-07T00:17:09.424Z,2.30
2022-11-07T00:22:11.749Z,2.30
2022-11-07T00:27:14.205Z,2.00
2022-11-07T00:32:16.736Z,1.90
2022-11-07T00:37:19.143Z,2.10
2022-11-07T00:42:21.699Z,2.40
2022-11-07T00:47:24.234Z,2.10
2022-11-07T00:52:26.729Z,2.10
2022-11-07T00:57:29.175Z,2.00
2022-11-07T01:02:32.000Z,1.90
2022-11-07T01:07:34.610Z,1.80
2022-11-07T01:12:37.043Z,1.80
2022-11-07T01:17:39.528Z,1.90
2022-11-07T01:22:42.320Z,1.90
2022-11-07T01:27:44.836Z,1.90
2022-11-07T01:32:47.364Z,1.90
2022-11-07T01:37:49.787Z,2.10
2022-11-07T01:42:52.191Z,2.10
2022-11-07T01:47:58.905Z,2.40
2022-11-07T01:53:01.479Z,2.50
2022-11-07T01:58:08.416Z,2.70
2022-11-07T02:03:15.097Z,2.80
2022-11-07T02:08:18.280Z,3.00
2022-11-07T02:13:27.192Z,2.90
2022-11-07T02:18:30.510Z,3.00
2022-11-07T02:23:45.541Z,2.90
2022-11-07T02:28:49.321Z,2.90
2022-11-07T02:33:51.867Z,2.80
2022-11-07T02:38:58.872Z,2.90
2022-11-07T02:44:07.029Z,2.90
2022-11-07T02:49:09.513Z,2.90
2022-11-07T02:54:11.965Z,2.80
2022-11-07T02:59:14.359Z,2.90
2022-11-07T03:04:16.850Z,2.90
2022-11-07T03:09:19.311Z,2.90
2022-11-07T03:14:21.729Z,2.80
2022-11-07T03:19:24.206Z,2.90
2022-11-07T03:24:27.781Z,2.90
2022-11-07T03:29:30.266Z,3.00
2022-11-07T03:34:32.649Z,3.00
2022-11-07T03:39:35.070Z,3.00
2022-11-07T03:44:37.539Z,2.90
2022-11-07T03:49:40.017Z,3.00
2022-11-07T03:54:42.413Z,3.00
2022-11-07T03:59:44.828Z,2.90
2022-11-07T04:04:47.255Z,2.90
2022-11-07T04:09:49.735Z,2.90
2022-11-07T04:15:11.387Z,2.80
2022-11-07T04:20:13.780Z,2.90
2022-11-07T04:25:16.303Z,2.90
2022-11-07T04:30:19.434Z,2.90
2022-11-07T04:35:25.073Z,2.80
2022-11-07T04:40:28.594Z,2.70
2022-11-07T04:45:31.029Z,2.70
2022-11-07T04:50:33.573Z,2.70
2022-11-07T04:55:36.003Z,2.80
2022-11-07T05:00:38.408Z,2.80
2022-11-07T05:05:40.927Z,2.90
2022-11-07T05:10:43.757Z,3.00
2022-11-07T05:15:46.798Z,3.10
2022-11-07T05:20:49.146Z,3.30
2022-11-07T05:25:53.080Z,3.40
2022-11-07T05:31:01.905Z,3.40
2022-11-07T05:36:19.159Z,3.50
2022-11-07T05:41:22.433Z,3.60
2022-11-07T05:46:24.861Z,3.60
2022-11-07T05:51:27.305Z,3.70
2022-11-07T05:56:38.609Z,4.50
2022-11-07T06:01:44.044Z,4.20
2022-11-07T06:06:48.833Z,3.80
2022-11-07T06:11:51.716Z,4.20
2022-11-07T06:16:54.456Z,3.90
2022-11-07T06:22:21.900Z,4.00
2022-11-07T06:27:22.545Z,4.00
2022-11-07T06:32:26.059Z,4.10
2022-11-07T06:37:29.510Z,5.00
2022-11-07T06:42:32.895Z,4.30
2022-11-07T06:47:37.552Z,4.20
2022-11-07T06:52:42.429Z,4.20
2022-11-07T06:57:49.533Z,4.30
2022-11-07T07:02:58.393Z,4.60
2022-11-07T07:08:07.450Z,4.50
2022-11-07T07:13:11.550Z,4.70
2022-11-07T07:18:14.820Z,4.80
2022-11-07T07:23:21.395Z,4.50
2022-11-07T07:28:24.024Z,4.90
2022-11-07T07:33:26.545Z,4.50
2022-11-07T07:38:28.944Z,4.30
2022-11-07T07:43:31.546Z,4.50
2022-11-07T07:48:34.874Z,6.00
2022-11-07T07:53:40.844Z,5.20
2022-11-07T07:58:44.643Z,5.40
2022-11-07T08:04:01.307Z,5.70
2022-11-07T08:09:05.511Z,6.10
2022-11-07T08:14:08.714Z,6.40
2022-11-07T08:19:11.431Z,7.00
2022-11-07T08:24:13.908Z,9.20
2022-11-07T08:29:16.343Z,9.80
2022-11-07T08:34:18.826Z,8.30
2022-11-07T08:39:21.283Z,8.40
2022-11-07T08:44:24.637Z,8.60
2022-11-07T08:49:27.433Z,9.90
2022-11-07T08:54:30.093Z,9.60
2022-11-07T08:59:32.681Z,13.10
2022-11-07T09:09:38.068Z,14.00
2022-11-07T09:14:40.508Z,13.90
2022-11-07T09:19:42.845Z,13.80
2022-11-07T09:24:45.751Z,16.20
2022-11-07T09:29:48.375Z,15.20
2022-11-07T09:34:58.122Z,14.60
2022-11-07T09:40:04.124Z,14.50
2022-11-07T09:45:13.266Z,15.30
2022-11-07T09:50:38.738Z,15.10
2022-11-07T09:55:52.925Z,16.20
2022-11-07T10:01:00.016Z,15.60
2022-11-07T10:06:24.905Z,15.50
2022-11-07T10:11:41.265Z,15.80
2022-11-07T10:17:22.212Z,16.30
2022-11-07T10:22:41.975Z,15.80
2022-11-07T10:27:47.605Z,15.80
2022-11-07T10:33:07.622Z,14.00
2022-11-07T10:38:22.114Z,12.30
2022-11-07T10:43:37.852Z,13.80
2022-11-07T10:49:00.353Z,13.20
2022-11-07T10:54:02.939Z,14.60
2022-11-07T10:59:13.519Z,13.70
2022-11-07T11:04:27.674Z,13.20
2022-11-07T11:09:35.717Z,12.60
2022-11-07T11:14:38.735Z,12.50
2022-11-07T11:19:51.542Z,14.10
2022-11-07T11:25:19.471Z,13.80
2022-11-07T11:30:22.698Z,15.10
2022-11-07T11:35:30.983Z,11.90
2022-11-07T11:40:39.498Z,11.50
2022-11-07T11:45:53.394Z,11.70
2022-11-07T11:51:20.347Z,11.60
2022-11-07T11:56:25.618Z,14.10
2022-11-07T12:02:03.532Z,13.10
2022-11-07T12:07:17.787Z,12.00
2022-11-07T12:12:54.139Z,12.90
2022-11-07T12:18:18.570Z,13.80
2022-11-07T12:23:38.718Z,13.40
2022-11-07T12:28:50.670Z,13.40
2022-11-07T12:34:14.830Z,14.40
2022-11-07T12:39:32.310Z,13.40
2022-11-07T12:45:25.999Z,13.10
2022-11-07T12:50:43.751Z,14.50
2022-11-07T12:55:57.836Z,15.20
2022-11-07T13:01:01.856Z,16.10
2022-11-07T13:06:04.438Z,14.80
2022-11-07T13:11:33.733Z,13.00
2022-11-07T13:16:37.370Z,12.70
2022-11-07T13:21:43.920Z,12.10
2022-11-07T13:26:47.982Z,11.00
2022-11-07T13:32:06.079Z,11.10
2022-11-07T13:37:16.417Z,10.80
2022-11-07T13:42:20.750Z,10.60
2022-11-07T13:47:30.961Z,10.50
2022-11-07T13:52:41.640Z,10.60
2022-11-07T13:57:52.493Z,10.60
2022-11-07T14:02:57.459Z,10.60
2022-11-07T14:08:07.308Z,10.50
2022-11-07T14:13:22.306Z,10.60
2022-11-07T14:18:28.434Z,10.60
2022-11-07T14:23:33.122Z,10.70
2022-11-07T14:28:38.113Z,10.30
2022-11-07T14:33:49.403Z,10.00
2022-11-07T14:38:54.948Z,9.90
2022-11-07T14:44:02.689Z,9.90
2022-11-07T14:49:06.897Z,9.80
2022-11-07T14:54:18.293Z,9.80
2022-11-07T14:59:24.366Z,9.60
2022-11-07T15:04:39.504Z,9.60
2022-11-07T15:09:41.928Z,9.50
2022-11-07T15:14:45.274Z,9.30
2022-11-07T15:20:02.381Z,9.40
2022-11-07T15:25:28.434Z,9.30
2022-11-07T15:30:33.932Z,9.10
2022-11-07T15:35:44.197Z,9.00
2022-11-07T15:40:48.303Z,8.80
2022-11-07T15:45:52.909Z,8.70
2022-11-07T15:50:55.816Z,8.70
2022-11-07T15:56:00.688Z,8.60
2022-11-07T16:01:03.577Z,8.50
2022-11-07T16:11:33.013Z,8.50
2022-11-07T16:16:35.720Z,8.50
2022-11-07T16:21:38.201Z,8.40
2022-11-07T16:26:40.802Z,8.60
2022-11-07T16:31:43.437Z,8.70
2022-11-07T16:36:47.393Z,8.80
2022-11-07T16:41:50.517Z,8.40
2022-11-07T16:46:55.466Z,8.10
2022-11-07T16:51:58.551Z,8.00
2022-11-07T16:57:01.792Z,7.90
2022-11-07T17:02:13.133Z,7.90
2022-11-07T17:07:19.118Z,7.80
2022-11-07T17:12:22.671Z,7.70
2022-11-07T17:17:25.063Z,7.60
2022-11-07T17:22:27.574Z,7.50
2022-11-07T17:27:30.599Z,7.40
2022-11-07T17:32:32.997Z,7.30
2022-11-07T17:37:35.696Z,7.50
2022-11-07T17:42:39.300Z,7.70
2022-11-07T17:47:41.691Z,7.60
2022-11-07T17:52:44.181Z,7.60
2022-11-07T17:57:46.723Z,7.90
2022-11-07T18:02:51.138Z,8.10
2022-11-07T18:07:54.023Z,8.20
2022-11-07T18:12:57.727Z,8.30
2022-11-07T18:18:00.199Z,8.30
2022-11-07T18:23:02.743Z,8.70
2022-11-07T18:28:06.294Z,8.50
2022-11-07T18:33:09.217Z,8.50
2022-11-07T18:38:11.739Z,8.50
2022-11-07T18:43:14.180Z,8.60
2022-11-07T18:48:17.852Z,8.60
2022-11-07T18:53:20.623Z,8.60
2022-11-07T18:58:23.148Z,8.90
2022-11-07T19:03:25.561Z,8.80
2022-11-07T19:08:29.839Z,8.90
2022-11-07T19:13:35.024Z,9.30
2022-11-07T19:18:37.809Z,9.20
2022-11-07T19:23:40.662Z,9.20
2022-11-07T19:28:43.217Z,9.30
2022-11-07T19:33:45.730Z,9.40
2022-11-07T19:38:48.834Z,9.40
2022-11-07T19:43:51.324Z,9.30
2022-11-07T19:48:55.695Z,9.40
2022-11-07T19:54:00.451Z,9.30
2022-11-07T19:59:03.103Z,9.30
2022-11-07T20:04:05.940Z,9.20
2022-11-07T20:09:11.619Z,9.30
2022-11-07T20:14:14.323Z,9.30
2022-11-07T20:19:16.918Z,9.40
2022-11-07T20:24:19.416Z,9.30
2022-11-07T20:29:23.028Z,9.40
2022-11-07T20:34:25.594Z,9.50
2022-11-07T20:39:28.054Z,9.50
2022-11-07T20:44:30.535Z,9.60
2022-11-07T20:49:33.103Z,9.60
2022-11-07T20:54:36.305Z,9.80
2022-11-07T20:59:41.456Z,9.60
2022-11-07T21:05:11.153Z,9.70
2022-11-07T21:10:06.891Z,9.50
2022-11-07T21:15:10.484Z,9.50
2022-11-07T21:20:13.323Z,9.50
2022-11-07T21:25:16.952Z,9.90
2022-11-07T21:30:19.952Z,10.00
2022-11-07T21:35:23.862Z,10.10
2022-11-07T21:40:26.303Z,9.80
2022-11-07T21:45:28.907Z,10.30
2022-11-07T21:50:44.183Z,10.00
2022-11-07T21:55:47.530Z,10.80
2022-11-07T22:00:50.257Z,10.20
2022-11-07T22:05:52.989Z,10.20
2022-11-07T22:10:55.424Z,10.60
2022-11-07T22:16:19.273Z,10.80
2022-11-07T22:21:23.239Z,10.70
2022-11-07T22:26:27.755Z,10.40
2022-11-07T22:31:31.769Z,10.50
2022-11-07T22:36:34.265Z,10.60
2022-11-07T22:41:36.808Z,10.90
2022-11-07T22:46:39.748Z,11.50
2022-11-07T22:51:42.278Z,10.60
2022-11-07T22:56:44.587Z,11.10
2022-11-07T23:01:47.146Z,10.80
2022-11-07T23:06:49.625Z,10.70
2022-11-07T23:11:52.033Z,11.10
2022-11-07T23:16:55.634Z,11.80
2022-11-07T23:21:58.118Z,11.90
2022-11-07T23:32:03.156Z,13.00
2022-11-07T23:37:13.980Z,12.20
2022-11-07T23:42:16.574Z,13.70
2022-11-07T23:47:38.141Z,12.70
2022-11-07T23:52:40.600Z,12.40
2022-11-07T23:58:02.378Z,12.20
